createdAt,value
2022-09-28T00:00:53.620Z,6.14
2022-09-28T00:03:58.181Z,6.04
2022-09-28T00:07:00.138Z,6.04
2022-09-28T00:10:01.668Z,6.06
2022-09-28T00:13:03.253Z,6.08
2022-09-28T00:16:05.779Z,6.07
2022-09-28T00:19:08.314Z,5.96
2022-09-28T00:22:09.887Z,5.97
2022-09-28T00:25:11.443Z,5.98
2022-09-28T00:28:12.973Z,6.02
2022-09-28T00:31:14.699Z,5.98
2022-09-28T00:34:16.449Z,5.93
2022-09-28T00:37:21.617Z,6.01
2022-09-28T00:40:23.148Z,5.98
2022-09-28T00:43:25.114Z,5.97
2022-09-28T00:46:31.453Z,6.00
2022-09-28T00:49:40.434Z,5.96
2022-09-28T00:52:48.598Z,6.01
2022-09-28T00:55:57.101Z,5.93
2022-09-28T00:58:59.668Z,5.88
2022-09-28T01:02:01.741Z,5.82
2022-09-28T01:05:04.178Z,5.81
2022-09-28T01:08:06.181Z,5.78
2022-09-28T01:11:07.808Z,5.77
2022-09-28T01:14:10.651Z,5.75
2022-09-28T01:17:16.310Z,5.73
2022-09-28T01:20:27.327Z,5.69
2022-09-28T01:23:47.970Z,5.70
2022-09-28T01:26:56.439Z,5.77
2022-09-28T01:30:01.706Z,5.77
2022-09-28T01:33:10.886Z,5.76
2022-09-28T01:36:14.185Z,5.70
2022-09-28T01:39:16.992Z,5.69
2022-09-28T01:42:22.661Z,5.67
2022-09-28T01:45:26.266Z,5.70
2022-09-28T01:48:38.297Z,5.71
2022-09-28T01:51:42.625Z,5.73
2022-09-28T01:54:50.265Z,5.78
2022-09-28T01:57:53.245Z,5.77
2022-09-28T02:00:57.365Z,5.86
2022-09-28T02:04:07.925Z,5.96
2022-09-28T02:07:17.352Z,6.01
2022-09-28T02:10:19.848Z,6.02
2022-09-28T02:13:30.502Z,6.02
2022-09-28T02:16:45.248Z,5.98
2022-09-28T02:19:46.906Z,5.95
2022-09-28T02:22:49.631Z,5.90
2022-09-28T02:25:52.633Z,5.82
2022-09-28T02:28:55.546Z,5.79
2022-09-28T02:31:57.144Z,5.79
2022-09-28T02:34:59.439Z,5.76
2022-09-28T02:38:01.096Z,5.75
2022-09-28T02:41:08.387Z,5.73
2022-09-28T02:44:19.300Z,5.69
2022-09-28T02:47:28.315Z,5.64
2022-09-28T02:50:33.327Z,5.60
2022-09-28T02:53:53.761Z,5.61
2022-09-28T02:56:55.433Z,5.53
2022-09-28T03:00:08.259Z,5.47
2022-09-28T03:03:18.998Z,5.42
2022-09-28T03:06:30.745Z,5.40
2022-09-28T03:09:34.001Z,5.38
2022-09-28T03:12:36.421Z,5.33
2022-09-28T03:15:38.077Z,5.31
2022-09-28T03:18:39.961Z,5.33
2022-09-28T03:21:42.027Z,5.28
2022-09-28T03:24:43.804Z,5.29
2022-09-28T03:27:45.986Z,5.31
2022-09-28T03:30:49.693Z,5.30
2022-09-28T03:33:51.557Z,5.32
2022-09-28T03:36:53.216Z,5.31
2022-09-28T03:39:54.930Z,5.32
2022-09-28T03:42:57.441Z,5.35
2022-09-28T03:46:00.969Z,5.36
2022-09-28T03:49:04.249Z,5.36
2022-09-28T03:52:06.109Z,5.39
2022-09-28T03:55:07.891Z,5.40
2022-09-28T03:58:09.517Z,5.38
2022-09-28T04:01:16.601Z,5.38
2022-09-28T04:04:20.238Z,5.41
2022-09-28T04:07:21.809Z,5.39
2022-09-28T04:10:23.927Z,5.37
2022-09-28T04:13:26.904Z,5.42
2022-09-28T04:16:28.599Z,5.39
2022-09-28T04:19:38.702Z,5.41
2022-09-28T04:23:10.502Z,5.37
2022-09-28T04:26:19.690Z,5.28
2022-09-28T04:29:22.328Z,5.29
2022-09-28T04:32:29.203Z,5.29
2022-09-28T04:35:30.753Z,5.33
2022-09-28T04:38:51.908Z,5.34
2022-09-28T04:41:54.943Z,5.35
2022-09-28T04:44:58.048Z,5.30
2022-09-28T04:47:59.772Z,5.38
2022-09-28T04:51:17.846Z,5.34
2022-09-28T04:54:19.481Z,5.34
2022-09-28T04:57:21.053Z,5.41
2022-09-28T05:00:22.613Z,5.41
2022-09-28T05:03:40.306Z,5.41
2022-09-28T05:07:00.911Z,5.41
2022-09-28T05:10:02.508Z,5.36
2022-09-28T05:13:07.262Z,5.36
2022-09-28T05:16:09.497Z,5.29
2022-09-28T05:19:26.275Z,5.32
2022-09-28T05:22:32.703Z,5.35
2022-09-28T05:25:34.296Z,5.36
2022-09-28T05:28:52.238Z,5.44
2022-09-28T05:32:19.265Z,5.46
2022-09-28T05:36:01.555Z,5.53
2022-09-28T05:39:04.591Z,5.53
2022-09-28T05:42:07.986Z,5.59
2022-09-28T05:45:10.294Z,5.58
2022-09-28T05:48:14.021Z,5.59
2022-09-28T05:51:15.861Z,5.64
2022-09-28T05:54:17.700Z,5.69
2022-09-28T05:57:21.456Z,5.77
2022-09-28T06:00:23.613Z,5.71
2022-09-28T06:03:28.680Z,5.73
2022-09-28T06:06:30.304Z,5.70
2022-09-28T06:09:31.945Z,5.65
2022-09-28T06:12:36.351Z,5.60
2022-09-28T06:15:42.897Z,5.55
2022-09-28T06:18:46.413Z,5.61
2022-09-28T06:22:13.881Z,5.59
2022-09-28T06:25:29.546Z,5.56
2022-09-28T06:28:31.638Z,5.55
2022-09-28T06:31:33.360Z,5.59
2022-09-28T06:34:35.276Z,5.62
2022-09-28T06:37:36.917Z,5.68
2022-09-28T06:40:38.995Z,5.74
2022-09-28T06:43:41.145Z,5.80
2022-09-28T06:47:01.280Z,5.92
2022-09-28T06:50:39.778Z,5.97
2022-09-28T06:54:01.284Z,6.01
2022-09-28T06:57:14.060Z,6.03
2022-09-28T07:00:16.775Z,6.05
2022-09-28T07:03:21.742Z,6.10
2022-09-28T07:06:32.163Z,6.16
2022-09-28T07:09:55.631Z,6.18
2022-09-28T07:13:42.655Z,6.25
2022-09-28T07:17:09.464Z,6.39
2022-09-28T07:20:17.295Z,6.51
2022-09-28T07:23:20.971Z,6.56
2022-09-28T07:26:41.094Z,6.72
2022-09-28T07:29:54.705Z,6.92
2022-09-28T07:33:17.200Z,7.16
2022-09-28T07:36:23.929Z,7.27
2022-09-28T07:39:27.304Z,7.18
2022-09-28T07:42:30.358Z,7.18
2022-09-28T07:45:36.744Z,7.20
2022-09-28T07:48:41.949Z,7.16
2022-09-28T07:51:53.225Z,7.12
2022-09-28T07:55:07.247Z,7.08
2022-09-28T07:58:36.322Z,7.04
2022-09-28T08:01:56.249Z,7.07
2022-09-28T08:04:59.960Z,7.10
2022-09-28T08:08:02.134Z,7.17
2022-09-28T08:11:06.352Z,7.19
2022-09-28T08:14:40.349Z,7.27
2022-09-28T08:18:05.514Z,7.28
2022-09-28T08:21:25.964Z,7.36
2022-09-28T08:24:31.054Z,7.47
2022-09-28T08:27:33.259Z,7.53
2022-09-28T08:30:35.303Z,7.57
2022-09-28T08:33:55.794Z,7.75
2022-09-28T08:37:26.557Z,7.75
2022-09-28T08:41:12.225Z,7.82
2022-09-28T08:44:45.601Z,7.80
2022-09-28T08:48:29.085Z,7.76
2022-09-28T08:52:08.250Z,7.84
2022-09-28T08:55:32.769Z,8.01
2022-09-28T08:58:36.309Z,8.07
2022-09-28T09:01:39.315Z,8.18
2022-09-28T09:04:45.421Z,8.37
2022-09-28T09:08:14.388Z,8.36
2022-09-28T09:11:25.621Z,8.54
2022-09-28T09:14:44.009Z,8.71
2022-09-28T09:17:52.680Z,8.87
2022-09-28T09:21:02.353Z,8.76
2022-09-28T09:24:41.629Z,8.71
2022-09-28T09:27:46.690Z,9.01
2022-09-28T09:30:51.707Z,9.12
2022-09-28T09:34:13.133Z,9.30
2022-09-28T09:37:58.632Z,9.18
2022-09-28T09:41:28.063Z,9.31
2022-09-28T09:44:52.372Z,9.27
2022-09-28T09:48:27.562Z,9.56
2022-09-28T09:51:35.440Z,9.45
2022-09-28T09:54:56.134Z,9.58
2022-09-28T09:58:14.829Z,9.75
2022-09-28T10:01:20.256Z,9.86
2022-09-28T10:04:41.393Z,9.60
2022-09-28T10:07:52.082Z,9.90
2022-09-28T10:11:02.942Z,9.80
2022-09-28T10:14:08.283Z,9.82
2022-09-28T10:17:13.930Z,9.93
2022-09-28T10:20:35.028Z,9.98
2022-09-28T10:23:50.476Z,10.07
2022-09-28T10:26:53.281Z,10.20
2022-09-28T10:30:02.589Z,10.35
2022-09-28T10:33:04.288Z,10.79
2022-09-28T10:36:09.365Z,10.56
2022-09-28T10:39:24.424Z,10.49
2022-09-28T10:42:26.793Z,10.83
2022-09-28T10:45:28.429Z,10.79
2022-09-28T10:48:31.237Z,10.63
2022-09-28T10:51:41.981Z,10.40
2022-09-28T10:54:52.775Z,10.51
2022-09-28T10:57:55.745Z,11.01
2022-09-28T11:00:59.972Z,11.43
2022-09-28T11:04:03.801Z,10.91
2022-09-28T11:07:05.398Z,11.01
2022-09-28T11:10:16.619Z,11.42
2022-09-28T11:13:18.272Z,12.44
2022-09-28T11:16:31.121Z,11.52
2022-09-28T11:19:34.654Z,10.71
2022-09-28T11:22:41.987Z,10.44
2022-09-28T11:25:52.077Z,11.29
2022-09-28T11:28:53.733Z,11.72
2022-09-28T11:32:05.770Z,11.17
2022-09-28T11:35:19.813Z,10.93
2022-09-28T11:38:28.363Z,11.29
2022-09-28T11:42:10.960Z,10.60
2022-09-28T11:45:46.459Z,10.57
2022-09-28T11:48:49.947Z,10.49
2022-09-28T11:51:51.504Z,10.56
2022-09-28T11:55:06.765Z,10.61
2022-09-28T11:58:11.303Z,10.87
2022-09-28T12:01:35.606Z,10.74
2022-09-28T12:04:59.431Z,10.58
2022-09-28T12:08:04.259Z,9.77
2022-09-28T12:11:44.643Z,9.91
2022-09-28T12:14:53.503Z,10.35
2022-09-28T12:17:56.548Z,11.44
2022-09-28T12:21:08.962Z,12.87
2022-09-28T12:24:49.145Z,12.32
2022-09-28T12:27:53.325Z,11.54
2022-09-28T12:30:54.949Z,11.49
2022-09-28T12:33:56.541Z,11.53
2022-09-28T12:37:00.900Z,11.71
2022-09-28T12:40:02.871Z,11.37
2022-09-28T12:43:10.774Z,10.76
2022-09-28T12:46:34.804Z,10.55
2022-09-28T12:53:35.348Z,10.72
2022-09-28T12:56:45.958Z,10.94
2022-09-28T12:59:53.034Z,10.92
2022-09-28T13:03:13.436Z,11.08
2022-09-28T13:06:30.126Z,10.99
2022-09-28T13:09:41.750Z,10.79
2022-09-28T13:12:46.121Z,10.76
2022-09-28T13:15:53.809Z,10.67
2022-09-28T13:18:55.414Z,10.72
2022-09-28T13:22:00.290Z,10.94
2022-09-28T13:25:07.453Z,10.76
2022-09-28T13:28:09.543Z,10.60
2022-09-28T13:31:11.165Z,10.57
2022-09-28T13:34:22.177Z,10.58
2022-09-28T13:37:24.846Z,10.63
2022-09-28T13:40:46.371Z,10.47
2022-09-28T13:43:51.332Z,10.70
2022-09-28T13:47:11.741Z,11.15
2022-09-28T13:50:27.083Z,11.51
2022-09-28T13:53:39.470Z,11.24
2022-09-28T13:56:50.338Z,11.36
2022-09-28T13:59:51.936Z,10.98
2022-09-28T14:02:53.550Z,11.05
2022-09-28T14:06:09.711Z,10.84
2022-09-28T14:09:14.098Z,10.18
2022-09-28T14:12:30.170Z,9.78
2022-09-28T14:15:31.828Z,9.81
2022-09-28T14:18:33.608Z,9.85
2022-09-28T14:21:38.197Z,9.87
2022-09-28T14:24:39.745Z,9.93
2022-09-28T14:27:47.529Z,9.91
2022-09-28T14:30:53.569Z,9.85
2022-09-28T14:33:59.414Z,9.69
2022-09-28T14:37:20.494Z,9.54
2022-09-28T14:40:49.903Z,9.40
2022-09-28T14:43:59.258Z,9.29
2022-09-28T14:47:21.826Z,9.19
2022-09-28T14:50:27.182Z,9.29
2022-09-28T14:53:28.884Z,9.38
2022-09-28T14:56:38.750Z,9.31
2022-09-28T14:59:42.852Z,9.26
2022-09-28T15:02:46.187Z,9.15
2022-09-28T15:05:48.240Z,9.07
2022-09-28T15:08:49.891Z,8.94
2022-09-28T15:11:55.485Z,8.88
2022-09-28T15:14:57.059Z,8.75
2022-09-28T15:18:04.757Z,8.61
2022-09-28T15:21:06.377Z,8.57
2022-09-28T15:24:43.166Z,8.61
2022-09-28T15:27:44.689Z,8.68
2022-09-28T15:30:46.241Z,8.76
2022-09-28T15:34:06.081Z,8.85
2022-09-28T15:37:11.537Z,8.87
2022-09-28T15:40:13.999Z,8.75
2022-09-28T15:43:24.144Z,8.63
2022-09-28T15:46:30.030Z,8.54
2022-09-28T15:49:39.029Z,8.46
2022-09-28T15:52:44.692Z,8.45
2022-09-28T15:55:47.143Z,8.43
2022-09-28T15:59:07.415Z,8.46
2022-09-28T16:02:13.123Z,8.51
2022-09-28T16:05:40.965Z,8.56
2022-09-28T16:08:43.204Z,8.60
2022-09-28T16:11:44.734Z,8.76
2022-09-28T16:14:47.977Z,8.88
2022-09-28T16:17:50.357Z,8.90
2022-09-28T16:20:52.761Z,8.86
2022-09-28T16:23:56.072Z,8.74
2022-09-28T16:27:01.065Z,8.55
2022-09-28T16:30:04.810Z,8.39
2022-09-28T16:33:08.595Z,8.29
2022-09-28T16:36:14.792Z,8.30
2022-09-28T16:39:17.089Z,8.22
2022-09-28T16:42:18.730Z,8.18
2022-09-28T16:45:21.069Z,8.15
2022-09-28T16:48:23.358Z,8.08
2022-09-28T16:51:24.885Z,8.00
2022-09-28T16:54:44.753Z,7.91
2022-09-28T16:57:50.461Z,7.91
2022-09-28T17:00:54.062Z,7.90
2022-09-28T17:03:55.626Z,7.90
2022-09-28T17:06:58.366Z,7.96
2022-09-28T17:10:00.036Z,8.01
2022-09-28T17:13:01.682Z,8.03
2022-09-28T17:16:06.276Z,8.08
2022-09-28T17:19:18.446Z,8.11
2022-09-28T17:22:20.089Z,8.09
2022-09-28T17:25:24.900Z,8.15
2022-09-28T17:28:27.573Z,8.17
2022-09-28T17:31:29.441Z,8.22
2022-09-28T17:34:31.197Z,8.31
2022-09-28T17:37:36.148Z,8.34
2022-09-28T17:40:37.764Z,8.37
2022-09-28T17:43:41.323Z,8.38
2022-09-28T17:46:47.379Z,8.37
2022-09-28T17:49:54.134Z,8.29
2022-09-28T17:52:57.702Z,8.25
2022-09-28T17:55:59.261Z,8.29
2022-09-28T17:59:01.673Z,8.31
2022-09-28T18:02:03.434Z,8.29
2022-09-28T18:05:05.196Z,8.23
2022-09-28T18:08:06.790Z,8.19
2022-09-28T18:11:08.309Z,8.21
2022-09-28T18:14:11.310Z,8.23
2022-09-28T18:17:13.116Z,8.22
2022-09-28T18:20:14.717Z,8.23
2022-09-28T18:23:16.279Z,8.28
2022-09-28T18:26:19.618Z,8.30
2022-09-28T18:29:21.193Z,8.32
2022-09-28T18:32:23.091Z,8.34
2022-09-28T18:35:24.689Z,8.40
2022-09-28T18:38:27.030Z,8.49
2022-09-28T18:41:29.344Z,8.55
2022-09-28T18:44:30.954Z,8.58
2022-09-28T18:47:33.163Z,8.62
2022-09-28T18:50:35.218Z,8.64
2022-09-28T18:53:37.145Z,8.65
2022-09-28T18:56:38.737Z,8.63
2022-09-28T18:59:40.299Z,8.63
2022-09-28T19:02:42.103Z,8.71
2022-09-28T19:05:44.038Z,8.75
2022-09-28T19:08:46.283Z,8.85
2022-09-28T19:11:48.342Z,8.89
2022-09-28T19:14:50.038Z,8.93
2022-09-28T19:17:51.671Z,8.98
2022-09-28T19:20:53.217Z,9.00
2022-09-28T19:23:55.601Z,9.01
2022-09-28T19:26:57.556Z,9.02
2022-09-28T19:29:59.050Z,9.09
2022-09-28T19:33:00.539Z,9.08
2022-09-28T19:36:03.074Z,9.15
2022-09-28T19:39:05.151Z,9.12
2022-09-28T19:42:06.705Z,9.20
2022-09-28T19:45:08.690Z,9.15
2022-09-28T19:48:10.191Z,9.20
2022-09-28T19:51:11.882Z,9.21
2022-09-28T19:54:13.723Z,9.26
2022-09-28T19:57:15.972Z,9.32
2022-09-28T20:00:17.798Z,9.36
2022-09-28T20:03:19.573Z,9.39
2022-09-28T20:06:21.283Z,9.45
2022-09-28T20:09:22.803Z,9.48
2022-09-28T20:12:24.384Z,9.54
2022-09-28T20:15:25.902Z,9.57
2022-09-28T20:18:27.514Z,9.58
2022-09-28T20:21:29.825Z,9.63
2022-09-28T20:24:31.613Z,9.58
2022-09-28T20:27:33.305Z,9.58
2022-09-28T20:30:34.862Z,9.62
2022-09-28T20:33:36.428Z,9.69
2022-09-28T20:36:37.982Z,9.81
2022-09-28T20:39:42.792Z,9.76
2022-09-28T20:42:46.658Z,9.70
2022-09-28T20:45:48.214Z,9.85
2022-09-28T20:48:50.335Z,9.85
2022-09-28T20:51:51.907Z,9.84
2022-09-28T20:54:53.458Z,9.82
2022-09-28T20:57:55.054Z,9.70
2022-09-28T21:01:17.320Z,9.68
2022-09-28T21:04:19.645Z,9.67
2022-09-28T21:07:21.429Z,9.69
2022-09-28T21:10:22.985Z,9.71
2022-09-28T21:13:24.971Z,9.71
2022-09-28T21:16:27.285Z,9.72
2022-09-28T21:19:29.510Z,9.71
2022-09-28T21:22:31.071Z,9.74
2022-09-28T21:25:32.623Z,9.69
2022-09-28T21:28:34.945Z,9.72
2022-09-28T21:31:40.579Z,9.68
2022-09-28T21:34:42.143Z,9.61
2022-09-28T21:37:43.689Z,9.58
2022-09-28T21:40:45.371Z,9.55
2022-09-28T21:43:46.981Z,9.54
2022-09-28T21:46:48.873Z,9.49
2022-09-28T21:49:50.498Z,9.52
2022-09-28T21:52:52.849Z,9.55
2022-09-28T21:55:54.917Z,9.50
2022-09-28T21:58:56.494Z,9.54
2022-09-28T22:01:58.148Z,9.58
2022-09-28T22:04:59.700Z,9.63
2022-09-28T22:08:01.374Z,9.66
2022-09-28T22:11:07.231Z,9.66
2022-09-28T22:14:10.879Z,9.65
2022-09-28T22:17:12.454Z,9.64
2022-09-28T22:20:14.051Z,9.61
2022-09-28T22:23:15.587Z,9.57
2022-09-28T22:26:20.175Z,9.62
2022-09-28T22:29:21.715Z,9.61
2022-09-28T22:32:23.872Z,9.53
2022-09-28T22:35:25.414Z,9.54
2022-09-28T22:38:28.137Z,9.57
2022-09-28T22:41:29.983Z,9.56
2022-09-28T22:44:31.659Z,9.58
2022-09-28T22:47:33.294Z,9.63
2022-09-28T22:50:34.877Z,9.63
2022-09-28T22:53:36.466Z,9.65
2022-09-28T22:56:37.998Z,9.65
2022-09-28T22:59:39.569Z,9.66
2022-09-28T23:02:41.404Z,9.64
2022-09-28T23:05:51.330Z,9.69
2022-09-28T23:08:53.234Z,9.75
2022-09-28T23:11:54.910Z,9.81
2022-09-28T23:14:56.497Z,9.82
2022-09-28T23:17:57.995Z,9.87
2022-09-28T23:21:00.550Z,9.88
2022-09-28T23:24:02.229Z,9.82
2022-09-28T23:27:03.861Z,9.84
2022-09-28T23:30:05.601Z,9.77
2022-09-28T23:33:07.280Z,9.69
2022-09-28T23:36:08.901Z,9.69
2022-09-28T23:39:11.739Z,9.69
2022-09-28T23:42:13.298Z,9.65
2022-09-28T23:45:14.914Z,9.63
2022-09-28T23:48:16.484Z,9.64
2022-09-28T23:51:18.228Z,9.62
2022-09-28T23:54:19.742Z,9.61
2022-09-28T23:57:21.325Z,9.63
